Big Powderhorn Mountain, Michigan
Current Conditions -  °F | °C
As of 3:15 AM on Sunday 21 Dec 2014 (Local Time) from KIWD Reporting Station
Overcast Overcast  
Wind Chill: 23°   Ceiling: 1200
Heat Index: 30°   Visibility: 8mi
Dew Point: 27°   Wind: 8mph
Humidity: 86%   Direction: 190°S
Pressure: 30.02"   Gusts: NA
Location:  46.53°N, 90.1°W
Report Text: KIWD 210915Z AUTO 19007KT 8SM OVC012 M01/M03 A3002 RMK AO1
Loading
Personal Weather Stations






























Interactive Weather Map New forecast layout! Learn more

10-Day Weather Forecast

Advertisements
Track Severe Weather on mobile